Time;durP1;ratioP1;P1;durP2;ratioP2;P2;SDS_P1;SDS_P2;PMS_P1;PMS_P2;Temp;Humidity;BMP_temperature;BMP_pressure;BME280_temperature;BME280_humidity;BME280_pressure;Samples;Min_cycle;Max_cycle;Signal;HPM_P1;HPM_P2
2024/01/17 00:03:50;;;;;;;23.40;11.60;;;;;;;-3.00;84.33;99015.10;216500;1268;140621;-71
2024/01/17 00:08:53;;;;;;;24.40;12.70;;;;;;;-3.02;84.29;99018.38;217051;1267;140706;-73
2024/01/17 00:13:56;;;;;;;21.60;10.40;;;;;;;-3.02;84.40;99023.67;216613;1268;140388;-73
2024/01/17 00:19:00;;;;;;;23.30;12.30;;;;;;;-3.00;84.42;99030.91;215783;1267;141528;-70
2024/01/17 00:24:04;;;;;;;21.70;12.40;;;;;;;-2.97;84.42;99036.41;215946;1270;140904;-70
2024/01/17 00:29:06;;;;;;;22.90;12.10;;;;;;;-2.93;84.30;99038.50;215961;1270;140332;-70
2024/01/17 00:34:09;;;;;;;22.90;12.00;;;;;;;-2.89;84.42;99037.91;215777;1270;141241;-74
2024/01/17 00:39:16;;;;;;;21.50;10.20;;;;;;;-2.86;84.35;99039.55;215559;1267;142949;-71
2024/01/17 00:44:21;;;;;;;16.90;11.20;;;;;;;-2.85;84.24;99037.13;215763;1272;141367;-74
2024/01/17 00:49:24;;;;;;;23.00;13.60;;;;;;;-2.84;84.46;99033.02;215746;1267;140857;-74
2024/01/17 00:54:26;;;;;;;22.00;12.20;;;;;;;-2.81;84.28;99026.73;215620;1267;140562;-75
2024/01/17 00:59:30;;;;;;;25.70;12.60;;;;;;;-2.78;84.31;99020.69;215767;1270;141062;-71
2024/01/17 01:04:33;;;;;;;20.30;11.60;;;;;;;-2.76;84.17;99018.20;215789;1271;140328;-73
2024/01/17 01:09:36;;;;;;;20.40;11.70;;;;;;;-2.77;84.06;99017.85;218221;1267;140649;-72
2024/01/17 01:14:39;;;;;;;21.70;12.30;;;;;;;-2.78;83.85;99011.17;215724;1272;141174;-72
2024/01/17 01:19:42;;;;;;;23.00;12.30;;;;;;;-2.80;83.70;99012.64;215846;1268;140480;-75
2024/01/17 01:24:45;;;;;;;24.40;12.50;;;;;;;-2.86;83.38;99009.13;215734;1272;140294;-72
2024/01/17 01:29:48;;;;;;;23.70;11.50;;;;;;;-2.97;83.25;99014.32;217590;1266;140685;-73
2024/01/17 01:34:51;;;;;;;21.20;11.70;;;;;;;-3.09;82.95;99005.10;218539;1268;141136;-75
2024/01/17 01:39:54;;;;;;;20.90;11.90;;;;;;;-3.17;82.99;98997.68;218625;1267;141821;-73
2024/01/17 01:44:57;;;;;;;20.90;10.10;;;;;;;-3.24;82.83;98985.08;218336;1267;140345;-72
2024/01/17 01:50:00;;;;;;;22.20;11.20;;;;;;;-3.38;82.64;98981.21;216310;1267;141009;-69
2024/01/17 01:55:05;;;;;;;22.30;12.70;;;;;;;-3.53;82.20;98983.34;215711;1270;141010;-68
2024/01/17 02:00:09;;;;;;;22.40;12.10;;;;;;;-3.72;82.17;98979.04;216612;1268;141378;-71
2024/01/17 02:05:13;;;;;;;26.30;13.60;;;;;;;-3.94;81.91;98978.65;216474;1266;140943;-69
2024/01/17 02:10:16;;;;;;;21.60;12.20;;;;;;;-4.09;82.20;98979.71;215699;1267;141493;-70
2024/01/17 02:15:19;;;;;;;22.30;10.90;;;;;;;-4.22;82.07;98974.69;215225;1272;141463;-70
2024/01/17 02:20:22;;;;;;;30.90;12.20;;;;;;;-4.35;82.11;98969.73;215312;1271;142527;-70
2024/01/17 02:25:25;;;;;;;27.40;14.10;;;;;;;-4.47;82.14;98967.50;215155;1268;141224;-70
2024/01/17 02:30:28;;;;;;;25.60;12.60;;;;;;;-4.60;82.28;98956.67;215392;1273;140418;-70
2024/01/17 02:35:32;;;;;;;26.40;13.10;;;;;;;-4.71;82.20;98959.29;215202;1268;140656;-71
2024/01/17 02:40:35;;;;;;;29.70;14.60;;;;;;;-4.83;82.17;98959.39;216302;1270;140970;-70
2024/01/17 02:45:37;;;;;;;22.30;12.30;;;;;;;-4.93;82.21;98959.95;215177;1272;141120;-71
2024/01/17 02:50:40;;;;;;;28.20;13.90;;;;;;;-5.02;82.41;98954.27;215880;1267;140865;-70
2024/01/17 02:55:43;;;;;;;26.60;15.10;;;;;;;-5.14;82.42;98955.30;216617;1267;140919;-71
2024/01/17 03:00:46;;;;;;;36.80;13.30;;;;;;;-5.23;82.52;98951.02;216486;1268;141333;-70
2024/01/17 03:05:49;;;;;;;20.30;10.10;;;;;;;-5.28;82.78;98954.48;216813;1272;140648;-70
2024/01/17 03:10:52;;;;;;;32.10;15.40;;;;;;;-5.33;82.56;98948.58;215282;1268;140314;-71
2024/01/17 03:15:55;;;;;;;25.90;13.60;;;;;;;-5.41;82.58;98957.64;215409;1268;140686;-69
2024/01/17 03:21:03;;;;;;;34.20;14.50;;;;;;;-5.51;82.53;98957.08;215713;1267;142145;-69
2024/01/17 03:26:06;;;;;;;25.80;12.80;;;;;;;-5.62;82.56;98958.05;217057;1270;140778;-70
2024/01/17 03:31:09;;;;;;;29.50;16.00;;;;;;;-5.75;82.51;98954.49;217618;1271;141114;-69
2024/01/17 03:36:12;;;;;;;25.70;13.20;;;;;;;-5.85;82.48;98961.64;218556;1267;141230;-71
2024/01/17 03:41:15;;;;;;;27.50;12.50;;;;;;;-5.95;82.35;98966.14;216446;1267;141527;-70
2024/01/17 03:46:18;;;;;;;22.80;11.00;;;;;;;-6.04;82.42;98968.91;217325;1267;140997;-69
2024/01/17 03:51:22;;;;;;;26.40;14.80;;;;;;;-6.15;82.45;98968.27;216237;1267;140443;-69
2024/01/17 03:56:25;;;;;;;24.60;14.30;;;;;;;-6.24;82.39;98973.98;215641;1272;141143;-70
2024/01/17 04:01:28;;;;;;;35.00;14.00;;;;;;;-6.31;82.66;98970.23;216425;1268;140894;-71
2024/01/17 04:06:31;;;;;;;23.80;13.70;;;;;;;-6.39;82.76;98976.63;217235;1267;140929;-71
2024/01/17 04:11:35;;;;;;;23.20;11.70;;;;;;;-6.46;82.88;98972.29;217072;1268;141089;-72
2024/01/17 04:16:39;;;;;;;24.80;13.60;;;;;;;-6.60;82.50;98967.36;215802;1271;140714;-69
2024/01/17 04:21:42;;;;;;;30.70;14.70;;;;;;;-6.83;81.98;98962.52;216230;1267;141251;-71
2024/01/17 04:26:45;;;;;;;22.80;13.40;;;;;;;-7.08;81.86;98958.77;215794;1268;140273;-71
2024/01/17 04:31:48;;;;;;;26.40;13.70;;;;;;;-7.35;81.73;98955.73;216187;1271;140455;-72
2024/01/17 04:36:51;;;;;;;28.80;16.40;;;;;;;-7.56;81.85;98954.58;216541;1270;142434;-71
2024/01/17 04:41:56;;;;;;;37.90;17.90;;;;;;;-7.69;81.94;98950.12;215798;1267;140525;-72
2024/01/17 04:46:59;;;;;;;31.70;15.10;;;;;;;-7.77;82.09;98945.41;216880;1270;141109;-71
2024/01/17 04:52:03;;;;;;;24.00;11.00;;;;;;;-7.84;81.93;98944.16;216243;1267;140321;-71
2024/01/17 04:57:06;;;;;;;27.00;12.20;;;;;;;-7.87;82.67;98935.47;216819;1267;141486;-68
2024/01/17 05:02:10;;;;;;;21.30;12.70;;;;;;;-7.85;83.02;98928.36;215800;1272;141386;-70
2024/01/17 05:07:13;;;;;;;28.00;12.70;;;;;;;-7.82;83.36;98924.80;217018;1267;141426;-69
2024/01/17 05:12:16;;;;;;;24.80;12.00;;;;;;;-7.84;83.08;98916.20;217582;1267;141279;-72
2024/01/17 05:17:19;;;;;;;15.70;10.90;;;;;;;-7.96;82.83;98908.75;216207;1271;141719;-73
2024/01/17 05:22:22;;;;;;;30.20;15.00;;;;;;;-8.00;83.22;98904.73;218462;1267;142428;-73
2024/01/17 05:27:25;;;;;;;26.00;14.20;;;;;;;-7.95;83.30;98901.02;218162;1266;141189;-70
2024/01/17 05:32:28;;;;;;;35.60;17.90;;;;;;;-7.94;83.20;98896.27;217649;1271;142853;-73
2024/01/17 05:37:32;;;;;;;22.00;13.50;;;;;;;-7.92;83.70;98901.38;217074;1267;231390;-71
2024/01/17 05:42:34;;;;;;;26.50;15.70;;;;;;;-7.91;83.57;98895.31;216434;1272;142775;-68
2024/01/17 05:47:38;;;;;;;31.60;16.90;;;;;;;-7.99;83.34;98894.19;216374;1267;141266;-66
2024/01/17 05:52:42;;;;;;;28.00;14.60;;;;;;;-8.08;83.41;98886.34;216197;1267;141624;-67
2024/01/17 05:57:45;;;;;;;36.10;15.70;;;;;;;-8.15;83.70;98877.16;215762;1271;141044;-69
2024/01/17 06:02:47;;;;;;;36.20;16.90;;;;;;;-8.23;83.83;98874.43;216772;1266;140982;-68
2024/01/17 06:07:49;;;;;;;36.30;17.10;;;;;;;-8.28;83.83;98875.92;216731;1271;141021;-68
2024/01/17 06:12:51;;;;;;;33.80;17.30;;;;;;;-8.31;84.11;98877.79;216566;1270;141821;-72
2024/01/17 06:17:54;;;;;;;42.40;19.70;;;;;;;-8.31;84.30;98874.30;217062;1267;143376;-72
2024/01/17 06:23:00;;;;;;;31.00;17.20;;;;;;;-8.31;84.38;98880.12;215479;1272;142931;-72
2024/01/17 06:28:03;;;;;;;35.00;19.00;;;;;;;-8.32;84.24;98874.90;216106;1267;140851;-73
2024/01/17 06:33:05;;;;;;;34.60;17.70;;;;;;;-8.37;84.47;98867.57;216179;1267;140723;-70
2024/01/17 06:38:08;;;;;;;34.80;19.10;;;;;;;-8.41;84.36;98864.52;217723;1267;141933;-69
2024/01/17 06:43:10;;;;;;;40.50;20.50;;;;;;;-8.41;84.26;98864.22;216467;1270;141161;-68
2024/01/17 06:48:14;;;;;;;35.90;19.90;;;;;;;-8.39;84.41;98849.99;217376;1270;141479;-69
2024/01/17 06:53:17;;;;;;;40.40;21.50;;;;;;;-8.38;84.41;98841.51;217577;1270;141357;-68
2024/01/17 06:58:19;;;;;;;41.60;21.10;;;;;;;-8.37;84.17;98833.84;216549;1268;140736;-67
2024/01/17 07:03:23;;;;;;;49.30;22.50;;;;;;;-8.37;84.25;98826.60;215983;1270;140898;-67
2024/01/17 07:08:25;;;;;;;49.10;21.70;;;;;;;-8.40;84.12;98820.35;216882;1267;142225;-71
2024/01/17 07:13:28;;;;;;;48.60;26.30;;;;;;;-8.39;84.53;98818.33;217251;1269;141461;-73
2024/01/17 07:18:31;;;;;;;44.30;22.90;;;;;;;-8.26;84.70;98812.95;217872;1271;141244;-72
2024/01/17 07:23:34;;;;;;;47.30;24.80;;;;;;;-8.03;84.89;98804.30;218601;1267;141209;-70
2024/01/17 07:28:37;;;;;;;44.80;24.00;;;;;;;-7.80;85.19;98801.02;217019;1269;142416;-72
2024/01/17 07:33:41;;;;;;;47.20;25.30;;;;;;;-7.61;85.07;98797.91;217453;1268;142037;-72
2024/01/17 07:38:44;;;;;;;42.80;21.60;;;;;;;-7.48;85.08;98789.54;217882;1267;141132;-73
2024/01/17 07:43:47;;;;;;;59.30;28.40;;;;;;;-7.37;85.09;98783.23;216710;1268;141092;-73
2024/01/17 07:48:50;;;;;;;53.80;26.50;;;;;;;-7.30;84.98;98780.41;217284;1271;143146;-71
2024/01/17 07:53:54;;;;;;;53.30;27.10;;;;;;;-7.20;84.90;98778.95;216355;1273;141956;-73
2024/01/17 07:58:56;;;;;;;57.40;31.20;;;;;;;-7.14;84.95;98774.13;216539;1272;141285;-72
2024/01/17 08:04:00;;;;;;;56.40;26.00;;;;;;;-7.09;84.74;98767.74;216804;1271;141055;-72
2024/01/17 08:09:06;;;;;;;47.60;26.90;;;;;;;-6.98;84.96;98763.56;215965;1267;140639;-72
2024/01/17 08:14:09;;;;;;;61.20;29.50;;;;;;;-6.91;85.01;98749.92;216071;1272;140644;-73
2024/01/17 08:19:14;;;;;;;52.70;27.50;;;;;;;-6.83;84.98;98742.27;216174;1268;141475;-72
2024/01/17 08:24:17;;;;;;;71.30;33.70;;;;;;;-6.67;85.16;98737.38;216516;1269;141514;-70
2024/01/17 08:29:21;;;;;;;64.30;29.30;;;;;;;-6.46;85.21;98734.63;217076;1269;141190;-73
2024/01/17 08:34:25;;;;;;;35.30;19.40;;;;;;;-6.29;84.87;98722.25;217445;1268;140565;-70
2024/01/17 08:39:28;;;;;;;58.20;27.80;;;;;;;-6.22;84.63;98711.67;216376;1270;141713;-69
2024/01/17 08:44:31;;;;;;;68.50;31.40;;;;;;;-6.15;84.50;98695.38;216472;1269;141628;-70
2024/01/17 08:49:39;;;;;;;46.30;25.40;;;;;;;-6.06;84.47;98682.53;216386;1270;140809;-73
2024/01/17 08:54:43;;;;;;;55.50;27.80;;;;;;;-5.94;84.23;98669.42;216755;1267;151223;-73
2024/01/17 08:59:46;;;;;;;57.00;30.20;;;;;;;-5.80;84.34;98662.35;216405;1270;140455;-74
2024/01/17 09:04:49;;;;;;;68.10;30.20;;;;;;;-5.65;84.16;98649.05;216940;1267;140802;-73
2024/01/17 09:09:51;;;;;;;47.30;24.10;;;;;;;-5.43;84.14;98643.33;216858;1267;141323;-74
2024/01/17 09:14:54;;;;;;;68.40;31.50;;;;;;;-5.23;83.96;98630.23;216595;1270;141301;-73
2024/01/17 09:19:58;;;;;;;42.40;22.30;;;;;;;-5.02;83.91;98618.71;216120;1270;141792;-73
2024/01/17 09:25:01;;;;;;;51.40;27.30;;;;;;;-4.86;83.48;98600.83;217092;1267;142043;-71
2024/01/17 09:30:04;;;;;;;52.90;29.90;;;;;;;-4.66;83.70;98589.16;217629;1267;140617;-71
2024/01/17 09:35:10;;;;;;;56.50;26.30;;;;;;;-4.45;83.22;98576.42;216927;1267;140756;-73
2024/01/17 09:40:13;;;;;;;44.60;26.70;;;;;;;-4.22;83.21;98555.86;216773;1267;140920;-74
2024/01/17 09:45:17;;;;;;;30.60;17.90;;;;;;;-3.93;82.91;98548.85;216235;1272;143297;-74
2024/01/17 09:50:20;;;;;;;47.50;25.50;;;;;;;-3.68;82.58;98540.75;216233;1270;141117;-73
2024/01/17 09:55:25;;;;;;;46.20;24.80;;;;;;;-3.40;82.24;98524.91;216270;1271;142878;-72
2024/01/17 10:00:29;;;;;;;46.80;22.20;;;;;;;-3.11;82.10;98505.61;216416;1270;140825;-73
2024/01/17 10:05:34;;;;;;;43.30;21.30;;;;;;;-2.80;81.90;98498.67;216970;1267;142907;-75
2024/01/17 10:10:39;;;;;;;45.50;25.30;;;;;;;-2.49;81.70;98476.52;216488;1271;141807;-71
2024/01/17 10:15:45;;;;;;;39.00;21.30;;;;;;;-2.17;81.56;98457.15;216578;1267;140843;-75
2024/01/17 10:20:48;;;;;;;52.80;27.90;;;;;;;-1.96;80.75;98450.49;216246;1271;140783;-72
2024/01/17 10:25:51;;;;;;;47.50;24.10;;;;;;;-1.75;80.42;98443.81;217499;1267;141276;-73
2024/01/17 10:30:54;;;;;;;40.70;22.30;;;;;;;-1.48;80.16;98428.04;214969;1268;968474;-73
2024/01/17 10:35:57;;;;;;;45.60;25.60;;;;;;;-1.29;79.44;98418.97;216492;1270;141216;-74
2024/01/17 10:41:05;;;;;;;40.30;22.80;;;;;;;-1.10;79.08;98409.39;216611;1267;140386;-74
2024/01/17 10:46:11;;;;;;;25.60;16.10;;;;;;;-0.90;78.62;98395.05;216608;1270;141425;-74
2024/01/17 10:51:20;;;;;;;34.10;19.00;;;;;;;-0.75;77.91;98383.82;215743;1270;140557;-73
2024/01/17 10:56:27;;;;;;;37.60;20.10;;;;;;;-0.73;77.61;98372.95;216896;1267;142088;-71
2024/01/17 11:01:37;;;;;;;29.50;15.70;;;;;;;-0.54;77.75;98351.83;215999;1271;140879;-73
2024/01/17 11:06:40;;;;;;;31.50;16.40;;;;;;;-0.33;77.24;98338.88;216000;1267;140965;-75
2024/01/17 11:11:46;;;;;;;29.50;17.40;;;;;;;-0.25;76.65;98329.65;215623;1272;140419;-70
2024/01/17 11:16:51;;;;;;;34.60;18.40;;;;;;;-0.15;76.37;98314.68;215836;1272;140550;-74
2024/01/17 11:21:55;;;;;;;29.00;15.30;;;;;;;0.02;76.22;98312.10;215930;1272;140465;-73
2024/01/17 11:27:38;;;;;;;21.50;11.10;;;;;;;0.23;75.95;98306.82;215922;1269;140103;-71
2024/01/17 11:33:10;;;;;;;15.40;9.40;;;;;;;0.41;75.23;98293.31;216421;1267;140365;-73
2024/01/17 11:38:30;;;;;;;19.30;11.10;;;;;;;0.51;74.47;98283.58;215718;1270;140144;-72
2024/01/17 11:43:36;;;;;;;20.30;11.20;;;;;;;0.42;73.58;98257.66;215979;1272;140190;-73
2024/01/17 11:48:40;;;;;;;20.10;12.40;;;;;;;0.27;72.96;98239.67;216017;1269;140884;-73
2024/01/17 11:53:46;;;;;;;14.90;9.90;;;;;;;0.11;72.81;98225.39;215843;1270;140070;-71
2024/01/17 11:58:58;;;;;;;17.50;10.20;;;;;;;-0.02;72.50;98210.46;216383;1270;140698;-69
2024/01/17 12:04:11;;;;;;;17.80;10.20;;;;;;;-0.05;72.65;98205.00;215742;1267;140688;-73
2024/01/17 12:09:21;;;;;;;17.70;10.00;;;;;;;-0.01;72.09;98196.29;217369;1267;140484;-74
2024/01/17 12:14:34;;;;;;;19.10;11.00;;;;;;;0.06;72.39;98182.71;216844;1267;142018;-72
2024/01/17 12:19:38;;;;;;;20.10;10.50;;;;;;;-0.01;71.90;98180.04;215719;1270;140952;-76
2024/01/17 12:24:42;;;;;;;20.50;13.00;;;;;;;-0.01;71.78;98171.17;215808;1267;141050;-72
2024/01/17 12:29:54;;;;;;;16.90;11.60;;;;;;;0.06;71.54;98160.27;216513;1267;140625;-72
2024/01/17 12:34:59;;;;;;;19.50;10.80;;;;;;;0.19;71.42;98146.80;216617;1269;140134;-69
2024/01/17 12:40:04;;;;;;;20.80;11.80;;;;;;;0.39;71.22;98135.92;215780;1270;142215;-72
2024/01/17 12:45:07;;;;;;;20.00;12.20;;;;;;;0.53;71.24;98129.77;215751;1267;140370;-71
2024/01/17 12:50:14;;;;;;;17.70;12.20;;;;;;;0.52;71.00;98113.16;216082;1270;140745;-69
2024/01/17 12:55:22;;;;;;;25.50;11.90;;;;;;;0.45;71.06;98100.16;215786;1270;141621;-69
2024/01/17 13:00:28;;;;;;;15.80;9.40;;;;;;;0.39;70.35;98087.33;218422;1267;140730;-75
2024/01/17 13:05:31;;;;;;;16.40;10.20;;;;;;;0.26;70.50;98077.16;218563;1266;140232;-72
2024/01/17 13:10:35;;;;;;;21.60;11.10;;;;;;;0.20;70.25;98066.87;218408;1267;141440;-75
2024/01/17 13:15:41;;;;;;;20.90;11.30;;;;;;;0.19;70.50;98065.86;218464;1267;140396;-74
2024/01/17 13:20:47;;;;;;;25.80;14.20;;;;;;;0.13;70.50;98054.31;216869;1268;142135;-72
2024/01/17 13:25:50;;;;;;;22.20;11.80;;;;;;;0.10;70.44;98047.59;215556;1268;140924;-74
2024/01/17 13:30:53;;;;;;;21.10;12.20;;;;;;;0.07;70.37;98044.87;215030;1267;140593;-70
2024/01/17 13:35:55;;;;;;;20.20;14.10;;;;;;;-0.02;70.35;98039.08;216147;1267;140146;-71
2024/01/17 13:41:00;;;;;;;19.90;11.00;;;;;;;-0.12;70.42;98024.20;215395;1267;141128;-73
2024/01/17 13:46:04;;;;;;;19.00;10.40;;;;;;;-0.19;70.26;98014.92;216140;1267;141100;-70
2024/01/17 13:51:10;;;;;;;24.10;11.20;;;;;;;-0.26;70.39;98006.56;216115;1269;142028;-69
2024/01/17 13:56:12;;;;;;;28.20;13.70;;;;;;;-0.28;70.04;97995.95;216317;1272;140800;-68
2024/01/17 14:01:18;;;;;;;22.60;11.80;;;;;;;-0.42;70.20;97992.98;215950;1267;141271;-68
2024/01/17 14:06:22;;;;;;;28.00;14.60;;;;;;;-0.53;70.43;97988.31;215241;1270;140401;-70
2024/01/17 14:11:26;;;;;;;21.30;12.90;;;;;;;-0.65;70.30;97978.73;215268;1270;140925;-69
2024/01/17 14:16:29;;;;;;;22.60;13.40;;;;;;;-0.81;70.35;97968.02;215306;1272;140486;-69
2024/01/17 14:21:32;;;;;;;22.00;13.00;;;;;;;-0.94;70.37;97958.64;215340;1267;141450;-71
2024/01/17 14:26:35;;;;;;;30.30;15.80;;;;;;;-1.06;70.80;97946.63;215305;1266;140594;-71
2024/01/17 14:31:40;;;;;;;19.30;11.00;;;;;;;-1.19;70.88;97934.58;215218;1267;140074;-70
2024/01/17 14:36:43;;;;;;;27.10;12.30;;;;;;;-1.25;71.08;97925.84;216721;1267;141089;-76
2024/01/17 14:41:46;;;;;;;24.20;12.00;;;;;;;-1.34;71.32;97917.27;215394;1271;141403;-72
2024/01/17 14:46:49;;;;;;;19.80;12.00;;;;;;;-1.40;71.42;97907.27;215485;1273;140511;-76
2024/01/17 14:51:54;;;;;;;17.30;12.90;;;;;;;-1.49;71.54;97892.02;215520;1270;142163;-71
2024/01/17 14:56:57;;;;;;;24.00;13.00;;;;;;;-1.55;71.55;97883.77;215481;1269;140938;-71
2024/01/17 15:02:00;;;;;;;25.90;13.20;;;;;;;-1.63;71.59;97869.15;216252;1267;140238;-70
2024/01/17 15:07:05;;;;;;;24.80;13.00;;;;;;;-1.67;71.69;97866.58;218348;1267;142120;-75
2024/01/17 15:12:08;;;;;;;20.90;12.50;;;;;;;-1.68;71.86;97860.51;216246;1267;141344;-73
2024/01/17 15:17:12;;;;;;;20.50;10.40;;;;;;;-1.71;71.70;97844.11;216170;1267;140632;-74
2024/01/17 15:22:15;;;;;;;22.90;11.80;;;;;;;-1.74;72.05;97840.77;216196;1267;141057;-72
2024/01/17 15:27:19;;;;;;;17.90;11.80;;;;;;;-1.75;72.11;97836.39;216221;1267;140907;-69
2024/01/17 15:32:22;;;;;;;17.50;9.30;;;;;;;-1.79;72.19;97822.45;216520;1267;141428;-69
2024/01/17 15:37:25;;;;;;;27.10;13.20;;;;;;;-1.80;72.10;97813.98;216772;1269;140523;-71
2024/01/17 15:42:27;;;;;;;26.20;11.80;;;;;;;-1.81;72.32;97808.39;216099;1267;140984;-73
2024/01/17 15:47:30;;;;;;;23.20;11.80;;;;;;;-1.83;72.38;97796.66;217091;1267;140600;-72
2024/01/17 15:52:33;;;;;;;29.90;13.60;;;;;;;-1.85;72.45;97784.55;215900;1269;141105;-72
2024/01/17 15:57:36;;;;;;;22.00;12.50;;;;;;;-1.85;72.51;97765.91;215982;1270;140374;-72
2024/01/17 16:02:40;;;;;;;29.40;13.20;;;;;;;-1.86;72.86;97756.59;215856;1266;140707;-70
2024/01/17 16:07:43;;;;;;;34.30;14.90;;;;;;;-1.86;72.78;97747.95;215816;1267;141569;-70
2024/01/17 16:12:46;;;;;;;23.50;10.70;;;;;;;-1.87;72.98;97731.81;216582;1270;141333;-71
2024/01/17 16:17:49;;;;;;;26.40;13.00;;;;;;;-1.86;73.23;97725.94;216929;1267;141665;-72
2024/01/17 16:22:52;;;;;;;30.30;14.70;;;;;;;-1.83;73.41;97710.89;216267;1268;141577;-71
2024/01/17 16:27:56;;;;;;;33.10;15.30;;;;;;;-1.80;73.33;97698.34;215974;1267;140657;-71
2024/01/17 16:32:59;;;;;;;21.40;11.60;;;;;;;-1.78;73.58;97692.23;216156;1268;142395;-71
2024/01/17 16:38:03;;;;;;;21.30;12.00;;;;;;;-1.75;73.55;97688.29;215971;1267;140733;-70
2024/01/17 16:43:05;;;;;;;26.20;13.10;;;;;;;-1.73;73.87;97693.95;215900;1268;140676;-68
2024/01/17 16:48:07;;;;;;;25.10;13.90;;;;;;;-1.71;73.86;97695.91;215644;1270;141545;-73
2024/01/17 16:53:10;;;;;;;24.80;14.20;;;;;;;-1.70;73.88;97692.80;216248;1270;140817;-70
2024/01/17 16:58:12;;;;;;;21.30;13.00;;;;;;;-1.69;73.90;97691.64;217172;1266;141325;-70
2024/01/17 17:03:17;;;;;;;24.00;12.50;;;;;;;-1.67;74.16;97683.67;217586;1266;141371;-69
2024/01/17 17:08:21;;;;;;;26.10;13.80;;;;;;;-1.64;74.35;97675.63;218460;1267;141071;-72
2024/01/17 17:13:25;;;;;;;18.50;11.20;;;;;;;-1.61;74.36;97668.30;217260;1267;141279;-71
2024/01/17 17:18:28;;;;;;;18.90;13.30;;;;;;;-1.59;74.39;97660.42;215820;1267;140924;-71
2024/01/17 17:23:36;;;;;;;23.60;12.20;;;;;;;-1.57;74.45;97643.17;216618;1267;140559;-72
2024/01/17 17:28:39;;;;;;;26.10;15.00;;;;;;;-1.55;74.54;97632.60;216394;1267;140523;-74
2024/01/17 17:33:44;;;;;;;24.50;15.00;;;;;;;-1.54;74.87;97626.88;215887;1270;141575;-71
2024/01/17 17:38:47;;;;;;;20.50;11.40;;;;;;;-1.53;74.67;97606.00;216228;1270;141076;-71
2024/01/17 17:43:57;;;;;;;28.20;14.30;;;;;;;-1.51;74.73;97595.16;215888;1271;141508;-71
2024/01/17 17:49:05;;;;;;;25.40;11.70;;;;;;;-1.48;74.76;97578.08;215931;1267;140454;-69
2024/01/17 17:54:11;;;;;;;20.00;10.70;;;;;;;-1.50;74.85;97563.80;216323;1271;141784;-69
2024/01/17 17:59:14;;;;;;;32.00;15.10;;;;;;;-1.51;75.09;97548.93;215769;1270;140677;-71
2024/01/17 18:04:22;;;;;;;16.50;10.20;;;;;;;-1.49;75.22;97539.40;217065;1267;141572;-72
2024/01/17 18:09:28;;;;;;;22.60;11.20;;;;;;;-1.44;75.31;97530.89;216379;1267;141625;-74
2024/01/17 18:14:31;;;;;;;29.90;14.30;;;;;;;-1.40;75.39;97513.41;215868;1270;140939;-73
2024/01/17 18:19:34;;;;;;;22.00;12.80;;;;;;;-1.38;75.63;97508.58;215795;1267;141603;-73
2024/01/17 18:24:37;;;;;;;15.30;9.60;;;;;;;-1.33;75.51;97506.79;217008;1271;141518;-74
2024/01/17 18:29:40;;;;;;;19.90;10.40;;;;;;;-1.29;75.48;97489.61;216628;1266;140908;-73
2024/01/17 18:34:44;;;;;;;22.40;12.30;;;;;;;-1.25;75.88;97478.25;216088;1269;141227;-72
2024/01/17 18:39:46;;;;;;;20.20;11.10;;;;;;;-1.21;76.16;97469.10;217835;1266;140826;-70
2024/01/17 18:44:49;;;;;;;23.00;10.80;;;;;;;-1.16;76.00;97457.27;215794;1267;140488;-71
2024/01/17 18:49:54;;;;;;;20.50;11.40;;;;;;;-1.10;76.16;97443.55;215818;1270;141539;-71
2024/01/17 18:54:58;;;;;;;21.40;14.50;;;;;;;-1.05;76.20;97424.35;217110;1267;141836;-71
2024/01/17 19:00:01;;;;;;;26.40;12.60;;;;;;;-1.00;76.48;97412.48;216001;1268;140573;-70
2024/01/17 19:05:04;;;;;;;21.80;13.90;;;;;;;-0.94;76.67;97403.61;215711;1268;141488;-72
2024/01/17 19:10:07;;;;;;;19.60;11.70;;;;;;;-0.89;76.83;97397.30;216389;1271;141313;-74
2024/01/17 19:15:10;;;;;;;19.50;10.70;;;;;;;-0.85;76.73;97399.71;218033;1268;140938;-73
2024/01/17 19:20:15;;;;;;;18.20;9.10;;;;;;;-0.80;77.14;97394.50;215997;1268;140341;-73
2024/01/17 19:25:19;;;;;;;16.30;10.70;;;;;;;-0.76;76.90;97392.77;216236;1268;141030;-73
2024/01/17 19:30:21;;;;;;;22.30;11.70;;;;;;;-0.70;77.06;97385.13;215661;1268;141284;-72
2024/01/17 19:35:26;;;;;;;29.40;12.10;;;;;;;-0.65;77.08;97382.18;215859;1266;141488;-71
2024/01/17 19:40:30;;;;;;;29.30;13.40;;;;;;;-0.62;77.25;97375.82;216660;1271;142090;-74
2024/01/17 19:45:33;;;;;;;19.90;11.20;;;;;;;-0.59;77.65;97361.35;215932;1268;153673;-68
2024/01/17 19:50:36;;;;;;;22.30;10.90;;;;;;;-0.56;77.78;97344.68;216095;1266;140518;-77
2024/01/17 19:55:39;;;;;;;22.00;11.90;;;;;;;-0.52;77.74;97334.33;216750;1267;141795;-70
2024/01/17 20:00:42;;;;;;;20.90;13.50;;;;;;;-0.46;78.24;97325.47;215632;1271;140799;-72
2024/01/17 20:05:44;;;;;;;21.30;10.80;;;;;;;-0.42;78.04;97318.62;215917;1268;141458;-75
2024/01/17 20:10:47;;;;;;;18.20;10.00;;;;;;;-0.39;78.61;97308.27;215757;1270;140617;-74
2024/01/17 20:15:50;;;;;;;24.60;13.00;;;;;;;-0.36;78.56;97300.33;216654;1269;140717;-72
2024/01/17 20:20:53;;;;;;;34.90;18.70;;;;;;;-0.36;78.86;97289.87;215894;1268;141615;-75
2024/01/17 20:25:55;;;;;;;28.70;13.40;;;;;;;-0.38;79.11;97280.35;215598;1267;141216;-74
2024/01/17 20:30:57;;;;;;;25.70;15.90;;;;;;;-0.44;79.26;97262.55;216695;1267;141868;-70
2024/01/17 20:36:00;;;;;;;25.30;14.30;;;;;;;-0.49;79.40;97248.82;215744;1267;142091;-72
2024/01/17 20:41:03;;;;;;;29.10;14.60;;;;;;;-0.52;79.61;97245.16;215900;1270;140521;-73
2024/01/17 20:46:06;;;;;;;22.00;13.10;;;;;;;-0.54;80.10;97233.92;216109;1271;140753;-71
2024/01/17 20:51:09;;;;;;;24.90;13.20;;;;;;;-0.56;80.09;97221.79;216697;1272;141601;-74
2024/01/17 20:56:13;;;;;;;27.50;14.50;;;;;;;-0.56;80.25;97221.75;218383;1267;140868;-71
2024/01/17 21:01:17;;;;;;;24.30;12.60;;;;;;;-0.53;80.43;97224.68;217283;1268;140580;-71
2024/01/17 21:06:20;;;;;;;33.20;15.50;;;;;;;-0.51;81.01;97214.59;215947;1268;142783;-71
2024/01/17 21:11:23;;;;;;;29.60;13.30;;;;;;;-0.48;81.42;97205.45;215866;1270;141634;-74
2024/01/17 21:16:26;;;;;;;33.30;14.00;;;;;;;-0.46;81.75;97185.32;216066;1268;140545;-74
2024/01/17 21:21:41;;;;;;;23.80;13.30;;;;;;;-0.46;81.93;97169.27;216080;1267;140689;-75
2024/01/17 21:26:43;;;;;;;20.50;11.80;;;;;;;-0.51;82.07;97147.96;216671;1268;140569;-76
2024/01/17 21:31:49;;;;;;;21.20;13.50;;;;;;;-0.53;82.21;97130.85;216778;1266;143585;-72
2024/01/17 21:36:51;;;;;;;24.70;14.80;;;;;;;-0.54;82.68;97120.89;216330;1270;142522;-71
2024/01/17 21:41:54;;;;;;;30.20;16.60;;;;;;;-0.50;82.63;97121.19;216560;1271;142551;-71
2024/01/17 21:46:57;;;;;;;31.00;14.90;;;;;;;-0.45;82.45;97123.83;215773;1272;140462;-72
2024/01/17 21:52:00;;;;;;;33.30;15.60;;;;;;;-0.40;82.80;97119.12;216309;1270;141351;-70
2024/01/17 21:57:05;;;;;;;31.00;15.50;;;;;;;-0.34;82.84;97106.86;215734;1272;141806;-73
2024/01/17 22:02:07;;;;;;;23.80;14.30;;;;;;;-0.28;82.80;97101.77;215671;1271;141443;-72
2024/01/17 22:07:11;;;;;;;21.30;13.40;;;;;;;-0.27;83.07;97092.45;216242;1271;141290;-71
2024/01/17 22:12:15;;;;;;;33.60;16.40;;;;;;;-0.26;83.07;97073.80;216307;1269;140862;-74
2024/01/17 22:17:18;;;;;;;24.50;14.60;;;;;;;-0.24;83.18;97064.16;215725;1272;142421;-71
2024/01/17 22:22:21;;;;;;;27.00;12.90;;;;;;;-0.21;83.56;97057.27;215817;1268;140702;-73
2024/01/17 22:27:24;;;;;;;19.20;12.20;;;;;;;-0.19;83.55;97048.89;216622;1267;140785;-71
2024/01/17 22:32:27;;;;;;;22.00;13.10;;;;;;;-0.17;83.75;97036.98;215567;1268;214766;-72
2024/01/17 22:37:32;;;;;;;27.20;14.10;;;;;;;-0.14;84.23;97029.09;217005;1268;141230;-71
2024/01/17 22:42:36;;;;;;;28.40;16.80;;;;;;;-0.10;84.12;97031.67;215638;1270;141055;-70
2024/01/17 22:47:39;;;;;;;25.90;15.60;;;;;;;-0.05;84.46;97030.63;216348;1267;141787;-73